createdAt,value
2018-04-25T00:00:06.963Z,97355.36
2018-04-25T00:01:12.457Z,97356.28
2018-04-25T00:02:17.539Z,97351.44
2018-04-25T00:03:22.544Z,97352.88
2018-04-25T00:04:28.468Z,97351.05
2018-04-25T00:05:34.336Z,97346.81
2018-04-25T00:06:39.936Z,97343.01
2018-04-25T00:07:45.255Z,97341.00
2018-04-25T00:08:50.001Z,97345.25
2018-04-25T00:09:54.466Z,97338.02
2018-04-25T00:10:59.248Z,97343.59
2018-04-25T00:12:04.716Z,97353.55
2018-04-25T00:13:10.293Z,97343.85
2018-04-25T00:14:15.877Z,97344.83
2018-04-25T00:15:20.920Z,97342.04
2018-04-25T00:16:26.673Z,97335.88
2018-04-25T00:17:33.480Z,97335.19
2018-04-25T00:18:38.108Z,97337.59
2018-04-25T00:19:42.605Z,97331.57
2018-04-25T00:20:49.744Z,97327.05
2018-04-25T00:21:55.914Z,97316.04
2018-04-25T00:23:01.050Z,97326.90
2018-04-25T00:24:06.670Z,97319.15
2018-04-25T00:25:11.034Z,97319.66
2018-04-25T00:26:15.615Z,97323.86
2018-04-25T00:27:19.940Z,97326.70
2018-04-25T00:28:24.475Z,97326.58
2018-04-25T00:29:29.631Z,97320.73
2018-04-25T00:30:34.494Z,97318.60
2018-04-25T00:31:39.422Z,97324.86
2018-04-25T00:32:44.564Z,97319.93
2018-04-25T00:33:49.898Z,97316.43
2018-04-25T00:34:54.648Z,97316.84
2018-04-25T00:35:59.201Z,97318.33
2018-04-25T00:37:04.008Z,97317.01
2018-04-25T00:38:08.492Z,97312.88
2018-04-25T00:39:12.969Z,97312.25
2018-04-25T00:40:17.819Z,97314.20
2018-04-25T00:41:22.153Z,97310.19
2018-04-25T00:42:26.558Z,97311.52
2018-04-25T00:43:32.130Z,97302.17
2018-04-25T00:44:37.417Z,97307.45
2018-04-25T00:45:42.630Z,97297.36
2018-04-25T00:46:47.430Z,97305.73
2018-04-25T00:47:52.155Z,97303.84
2018-04-25T00:48:56.637Z,97303.16
2018-04-25T00:50:01.758Z,97300.17
2018-04-25T00:51:06.772Z,97299.31
2018-04-25T00:52:11.573Z,97303.42
2018-04-25T00:53:16.033Z,97304.34
2018-04-25T00:54:20.516Z,97302.02
2018-04-25T00:55:25.191Z,97301.88
2018-04-25T00:56:29.978Z,97296.05
2018-04-25T00:57:34.434Z,97291.47
2018-04-25T00:58:39.310Z,97290.83
2018-04-25T00:59:44.148Z,97285.04
2018-04-25T01:00:48.893Z,97283.78
2018-04-25T01:01:53.747Z,97281.09
2018-04-25T01:02:58.566Z,97278.63
2018-04-25T01:04:03.061Z,97276.10
2018-04-25T01:05:07.532Z,97276.37
2018-04-25T01:06:12.037Z,97270.41
2018-04-25T01:07:16.863Z,97275.16
2018-04-25T01:08:22.224Z,97272.30
2018-04-25T01:09:26.842Z,97275.47
2018-04-25T01:10:31.219Z,97270.53
2018-04-25T01:11:35.610Z,97275.00
2018-04-25T01:12:39.925Z,97273.86
2018-04-25T01:13:44.243Z,97269.15
2018-04-25T01:14:48.618Z,97267.55
2018-04-25T01:15:53.539Z,97270.70
2018-04-25T01:16:58.137Z,97263.36
2018-04-25T01:18:03.736Z,97271.22
2018-04-25T01:19:08.282Z,97271.33
2018-04-25T01:20:12.853Z,97261.06
2018-04-25T01:21:17.875Z,97262.78
2018-04-25T01:22:22.951Z,97264.92
2018-04-25T01:23:27.858Z,97264.73
2018-04-25T01:24:32.368Z,97259.53
2018-04-25T01:25:37.661Z,97264.86
2018-04-25T01:26:43.596Z,97262.34
2018-04-25T01:27:50.310Z,97255.18
2018-04-25T01:28:55.082Z,97253.05
2018-04-25T01:29:59.601Z,97252.17
2018-04-25T01:31:05.057Z,97249.96
2018-04-25T01:32:09.926Z,97252.64
2018-04-25T01:33:14.586Z,97246.45
2018-04-25T01:34:19.162Z,97245.73
2018-04-25T01:35:24.846Z,97240.42
2018-04-25T01:36:31.324Z,97244.13
2018-04-25T01:37:35.883Z,97242.51
2018-04-25T01:38:41.324Z,97242.17
2018-04-25T01:39:45.862Z,97237.42
2018-04-25T01:40:50.326Z,97246.70
2018-04-25T01:41:55.725Z,97237.96
2018-04-25T01:43:00.294Z,97240.48
2018-04-25T01:44:06.248Z,97241.75
2018-04-25T01:45:11.698Z,97236.25
2018-04-25T01:46:16.529Z,97237.75
2018-04-25T01:47:21.093Z,97230.75
2018-04-25T01:48:26.449Z,97227.59
2018-04-25T01:49:31.238Z,97225.48
2018-04-25T01:50:36.328Z,97219.80
2018-04-25T01:51:46.124Z,97224.15
2018-04-25T01:52:55.804Z,97217.05
2018-04-25T01:54:09.760Z,97219.77
2018-04-25T01:55:19.378Z,97216.14
2018-04-25T01:56:29.047Z,97212.59
2018-04-25T01:57:38.776Z,97212.28
2018-04-25T01:58:48.679Z,97209.70
2018-04-25T01:59:59.685Z,97213.68
2018-04-25T02:01:09.296Z,97212.08
2018-04-25T02:02:12.832Z,97208.62
2018-04-25T02:03:18.141Z,97200.48
2018-04-25T02:04:22.841Z,97199.84
2018-04-25T02:05:27.760Z,97203.23
2018-04-25T02:06:32.534Z,97205.43
2018-04-25T02:07:37.401Z,97206.80
2018-04-25T02:08:42.533Z,97209.13
2018-04-25T02:09:47.124Z,97202.72
2018-04-25T02:10:51.855Z,97202.53
2018-04-25T02:11:56.890Z,97203.28
2018-04-25T02:13:02.134Z,97202.85
2018-04-25T02:14:07.362Z,97203.65
2018-04-25T02:15:12.371Z,97207.36
2018-04-25T02:16:17.311Z,97209.82
2018-04-25T02:17:21.825Z,97205.38
2018-04-25T02:18:27.154Z,97210.47
2018-04-25T02:19:32.633Z,97207.89
2018-04-25T02:20:37.144Z,97219.70
2018-04-25T02:21:41.634Z,97218.33
2018-04-25T02:22:46.132Z,97214.54
2018-04-25T02:23:50.609Z,97209.55
2018-04-25T02:24:55.188Z,97210.23
2018-04-25T02:26:01.379Z,97209.88
2018-04-25T02:27:05.886Z,97207.88
2018-04-25T02:28:11.216Z,97202.27
2018-04-25T02:29:16.322Z,97203.59
2018-04-25T02:30:20.814Z,97203.25
2018-04-25T02:31:25.754Z,97205.60
2018-04-25T02:32:31.122Z,97202.39
2018-04-25T02:33:36.021Z,97203.73
2018-04-25T02:34:40.821Z,97202.66
2018-04-25T02:35:45.348Z,97198.66
2018-04-25T02:36:50.442Z,97203.30
2018-04-25T02:37:54.950Z,97199.94
2018-04-25T02:39:00.374Z,97196.87
2018-04-25T02:40:05.382Z,97197.22
2018-04-25T02:41:10.650Z,97200.00
2018-04-25T02:42:15.930Z,97198.63
2018-04-25T02:43:20.327Z,97203.31
2018-04-25T02:44:24.690Z,97189.45
2018-04-25T02:45:29.334Z,97199.98
2018-04-25T02:46:34.684Z,97199.23
2018-04-25T02:47:39.893Z,97193.70
2018-04-25T02:48:44.241Z,97189.95
2018-04-25T02:49:48.708Z,97195.69
2018-04-25T02:50:53.216Z,97193.00
2018-04-25T02:51:57.971Z,97188.59
2018-04-25T02:53:02.474Z,97195.12
2018-04-25T02:54:07.555Z,97196.03
2018-04-25T02:55:12.172Z,97193.92
2018-04-25T02:56:17.018Z,97191.06
2018-04-25T02:57:23.164Z,97190.59
2018-04-25T02:58:27.999Z,97193.92
2018-04-25T02:59:32.502Z,97194.67
2018-04-25T03:00:37.052Z,97194.89
2018-04-25T03:01:42.596Z,97189.57
2018-04-25T03:02:47.917Z,97192.32
2018-04-25T03:03:52.386Z,97190.88
2018-04-25T03:04:57.346Z,97189.05
2018-04-25T03:06:02.013Z,97191.66
2018-04-25T03:07:06.944Z,97192.36
2018-04-25T03:08:13.319Z,97188.69
2018-04-25T03:09:17.837Z,97190.77
2018-04-25T03:10:22.444Z,97186.53
2018-04-25T03:11:27.206Z,97187.05
2018-04-25T03:12:31.541Z,97176.39
2018-04-25T03:13:36.376Z,97175.64
2018-04-25T03:14:42.592Z,97180.22
2018-04-25T03:15:47.552Z,97181.49
2018-04-25T03:16:52.140Z,97174.99
2018-04-25T03:17:56.946Z,97184.81
2018-04-25T03:19:01.349Z,97180.17
2018-04-25T03:20:06.664Z,97179.34
2018-04-25T03:21:11.152Z,97176.70
2018-04-25T03:22:15.658Z,97179.39
2018-04-25T03:23:20.135Z,97181.64
2018-04-25T03:24:25.684Z,97179.13
2018-04-25T03:25:30.135Z,97171.37
2018-04-25T03:26:34.649Z,97169.08
2018-04-25T03:27:39.120Z,97166.89
2018-04-25T03:28:43.623Z,97174.30
2018-04-25T03:29:48.664Z,97171.33
2018-04-25T03:30:53.967Z,97171.33
2018-04-25T03:31:58.468Z,97172.30
2018-04-25T03:33:03.178Z,97173.37
2018-04-25T03:34:09.467Z,97168.78
2018-04-25T03:35:13.889Z,97164.55
2018-04-25T03:36:18.421Z,97169.27
2018-04-25T03:37:23.674Z,97167.66
2018-04-25T03:38:28.172Z,97162.89
2018-04-25T03:39:32.645Z,97165.63
2018-04-25T03:40:37.543Z,97169.47
2018-04-25T03:41:42.640Z,97164.37
2018-04-25T03:42:48.443Z,97160.70
2018-04-25T03:43:53.316Z,97162.88
2018-04-25T03:44:57.795Z,97164.50
2018-04-25T03:46:02.385Z,97162.44
2018-04-25T03:47:06.892Z,97162.88
2018-04-25T03:48:11.391Z,97153.41
2018-04-25T03:49:15.896Z,97162.59
2018-04-25T03:50:20.663Z,97155.95
2018-04-25T03:51:25.228Z,97154.01
2018-04-25T03:52:30.842Z,97156.34
2018-04-25T03:53:35.582Z,97151.95
2018-04-25T03:54:40.134Z,97161.39
2018-04-25T03:55:45.412Z,97162.76
2018-04-25T03:56:50.313Z,97159.31
2018-04-25T03:57:54.784Z,97158.95
2018-04-25T03:58:59.931Z,97155.63
2018-04-25T04:00:04.664Z,97160.34
2018-04-25T04:01:10.315Z,97165.23
2018-04-25T04:02:14.792Z,97165.18
2018-04-25T04:03:19.602Z,97164.24
2018-04-25T04:04:24.497Z,97160.86
2018-04-25T04:05:29.032Z,97157.61
2018-04-25T04:06:33.537Z,97164.64
2018-04-25T04:07:39.304Z,97157.23
2018-04-25T04:08:44.126Z,97161.23
2018-04-25T04:09:48.896Z,97154.03
2018-04-25T04:10:53.710Z,97156.11
2018-04-25T04:11:58.600Z,97162.48
2018-04-25T04:13:03.092Z,97149.53
2018-04-25T04:14:07.631Z,97147.41
2018-04-25T04:15:12.061Z,97147.05
2018-04-25T04:16:16.868Z,97153.61
2018-04-25T04:17:21.369Z,97154.65
2018-04-25T04:18:26.761Z,97154.07
2018-04-25T04:19:31.280Z,97147.43
2018-04-25T04:20:35.790Z,97154.09
2018-04-25T04:21:40.330Z,97151.48
2018-04-25T04:22:45.670Z,97150.28
2018-04-25T04:23:50.248Z,97149.95
2018-04-25T04:24:54.796Z,97139.11
2018-04-25T04:25:59.491Z,97147.84
2018-04-25T04:27:05.225Z,97154.01
2018-04-25T04:28:10.423Z,97160.84
2018-04-25T04:29:15.273Z,97159.08
2018-04-25T04:30:19.832Z,97154.95
2018-04-25T04:31:24.423Z,97151.84
2018-04-25T04:32:29.350Z,97152.33
2018-04-25T04:33:33.925Z,97149.19
2018-04-25T04:34:39.255Z,97149.84
2018-04-25T04:35:44.043Z,97151.63
2018-04-25T04:36:48.629Z,97154.91
2018-04-25T04:37:53.095Z,97147.05
2018-04-25T04:38:57.884Z,97144.86
2018-04-25T04:40:03.085Z,97143.72
2018-04-25T04:41:07.563Z,97144.70
2018-04-25T04:42:12.351Z,97138.55
2018-04-25T04:43:18.424Z,97160.95
2018-04-25T04:44:22.984Z,97144.44
2018-04-25T04:45:27.794Z,97150.97
2018-04-25T04:46:32.292Z,97153.45
2018-04-25T04:47:36.789Z,97150.63
2018-04-25T04:48:41.833Z,97142.50
2018-04-25T04:49:46.387Z,97145.27
2018-04-25T04:50:50.903Z,97142.09
2018-04-25T04:51:55.293Z,97146.56
2018-04-25T04:52:59.691Z,97130.80
2018-04-25T04:54:05.239Z,97147.36
2018-04-25T04:55:11.399Z,97139.57
2018-04-25T04:56:15.923Z,97139.11
2018-04-25T04:57:21.159Z,97139.91
2018-04-25T04:58:25.836Z,97143.92
2018-04-25T04:59:30.712Z,97141.61
2018-04-25T05:00:35.413Z,97146.78
2018-04-25T05:01:40.532Z,97143.86
2018-04-25T05:02:45.075Z,97139.53
2018-04-25T05:03:49.777Z,97147.32
2018-04-25T05:04:54.440Z,97146.06
2018-04-25T05:05:58.940Z,97144.28
2018-04-25T05:07:04.150Z,97147.94
2018-04-25T05:08:09.235Z,97153.30
2018-04-25T05:09:15.011Z,97150.74
2018-04-25T05:10:19.802Z,97153.33
2018-04-25T05:11:24.237Z,97158.66
2018-04-25T05:12:29.519Z,97151.09
2018-04-25T05:13:34.192Z,97138.71
2018-04-25T05:14:39.776Z,97145.70
2018-04-25T05:15:45.999Z,97151.91
2018-04-25T05:16:50.553Z,97155.69
2018-04-25T05:17:54.890Z,97160.67
2018-04-25T05:18:59.272Z,97148.86
2018-04-25T05:20:04.927Z,97151.14
2018-04-25T05:21:09.420Z,97149.83
2018-04-25T05:22:14.889Z,97161.12
2018-04-25T05:23:19.539Z,97144.56
2018-04-25T05:24:24.277Z,97158.67
2018-04-25T05:25:28.754Z,97152.37
2018-04-25T05:26:33.530Z,97144.22
2018-04-25T05:27:39.861Z,97154.27
2018-04-25T05:28:44.730Z,97135.45
2018-04-25T05:29:49.588Z,97145.05
2018-04-25T05:30:54.149Z,97154.81
2018-04-25T05:31:58.732Z,97158.99
2018-04-25T05:33:03.688Z,97159.30
2018-04-25T05:34:08.807Z,97153.91
2018-04-25T05:35:14.162Z,97156.93
2018-04-25T05:36:18.576Z,97158.84
2018-04-25T05:37:23.046Z,97154.21
2018-04-25T05:38:27.548Z,97160.80
2018-04-25T05:39:32.429Z,97163.04
2018-04-25T05:40:37.030Z,97162.36
2018-04-25T05:41:41.787Z,97162.48
2018-04-25T05:42:47.429Z,97168.22
2018-04-25T05:43:51.923Z,97160.72
2018-04-25T05:44:59.435Z,97164.73
2018-04-25T05:46:04.272Z,97172.85
2018-04-25T05:47:09.238Z,97180.41
2018-04-25T05:48:13.882Z,97170.73
2018-04-25T05:49:18.379Z,97173.84
2018-04-25T05:50:22.894Z,97172.98
2018-04-25T05:51:28.238Z,97166.91
2018-04-25T05:52:34.793Z,97179.34
2018-04-25T05:53:39.388Z,97173.50
2018-04-25T05:54:43.991Z,97183.05
2018-04-25T05:55:49.474Z,97154.63
2018-04-25T05:56:54.250Z,97177.49
2018-04-25T05:57:59.984Z,97188.16
2018-04-25T05:59:04.840Z,97187.94
2018-04-25T06:00:10.030Z,97183.94
2018-04-25T06:01:14.667Z,97191.56
2018-04-25T06:02:20.819Z,97187.06
2018-04-25T06:03:26.044Z,97189.54
2018-04-25T06:04:30.609Z,97188.45
2018-04-25T06:05:35.510Z,97189.37
2018-04-25T06:06:40.636Z,97191.30
2018-04-25T06:07:45.372Z,97196.01
2018-04-25T06:08:50.027Z,97190.00
2018-04-25T06:09:54.597Z,97197.84
2018-04-25T06:10:59.094Z,97188.12
2018-04-25T06:12:03.754Z,97196.53
2018-04-25T06:13:09.244Z,97192.91
2018-04-25T06:14:13.798Z,97195.09
2018-04-25T06:15:18.375Z,97197.63
2018-04-25T06:16:23.013Z,97191.27
2018-04-25T06:17:27.915Z,97162.34
2018-04-25T06:18:32.425Z,97207.65
2018-04-25T06:19:36.935Z,97201.83
2018-04-25T06:20:41.735Z,97202.05
2018-04-25T06:21:46.627Z,97172.02
2018-04-25T06:22:51.740Z,97212.52
2018-04-25T06:23:57.840Z,97205.08
2018-04-25T06:25:04.278Z,97205.23
2018-04-25T06:26:08.867Z,97204.27
2018-04-25T06:27:13.428Z,97200.47
2018-04-25T06:28:17.861Z,97191.91
2018-04-25T06:29:22.485Z,97193.37
2018-04-25T06:30:28.511Z,97196.93
2018-04-25T06:31:34.718Z,97199.22
2018-04-25T06:32:39.344Z,97205.23
2018-04-25T06:33:44.316Z,97196.34
2018-04-25T06:34:48.938Z,97194.29
2018-04-25T06:35:53.463Z,97192.82
2018-04-25T06:36:58.402Z,97192.05
2018-04-25T06:38:03.560Z,97187.63
2018-04-25T06:39:09.687Z,97196.50
2018-04-25T06:40:14.053Z,97185.70
2018-04-25T06:41:18.934Z,97172.23
2018-04-25T06:42:23.677Z,97176.21
2018-04-25T06:43:28.775Z,97178.53
2018-04-25T06:44:33.370Z,97183.72
2018-04-25T06:45:37.967Z,97185.84
2018-04-25T06:46:43.332Z,97186.30
2018-04-25T06:47:47.985Z,97167.41
2018-04-25T06:48:52.802Z,97158.61
2018-04-25T06:49:58.880Z,97195.13
2018-04-25T06:51:03.446Z,97187.34
2018-04-25T06:52:08.242Z,97192.62
2018-04-25T06:53:13.194Z,97187.46
2018-04-25T06:54:17.889Z,97185.66
2018-04-25T06:55:22.782Z,97189.64
2018-04-25T06:56:27.395Z,97179.25
2018-04-25T06:57:32.331Z,97197.11
2018-04-25T06:58:36.891Z,97182.77
2018-04-25T06:59:41.684Z,97185.86
2018-04-25T07:00:46.367Z,97179.58
2018-04-25T07:01:51.609Z,97188.42
2018-04-25T07:02:56.177Z,97198.68
2018-04-25T07:04:00.680Z,97191.16
2018-04-25T07:05:05.648Z,97173.62
2018-04-25T07:06:10.283Z,97170.23
2018-04-25T07:07:14.963Z,97180.36
2018-04-25T07:08:20.515Z,97173.56
2018-04-25T07:09:25.534Z,97173.00
2018-04-25T07:10:30.056Z,97174.32
2018-04-25T07:11:34.570Z,97172.95
2018-04-25T07:12:39.820Z,97170.16
2018-04-25T07:13:44.748Z,97192.02
2018-04-25T07:14:50.034Z,97176.64
2018-04-25T07:15:55.014Z,97187.41
2018-04-25T07:17:00.959Z,97172.00
2018-04-25T07:18:06.031Z,97167.23
2018-04-25T07:19:10.507Z,97186.05
2018-04-25T07:20:15.193Z,97182.22
2018-04-25T07:21:21.188Z,97197.65
2018-04-25T07:22:26.870Z,97164.39
2018-04-25T07:23:31.602Z,97181.48
2018-04-25T07:24:36.409Z,97179.92
2018-04-25T07:25:41.172Z,97170.45
2018-04-25T07:26:46.970Z,97171.66
2018-04-25T07:27:53.541Z,97172.59
2018-04-25T07:28:58.992Z,97173.37
2018-04-25T07:30:03.734Z,97161.73
2018-04-25T07:31:08.310Z,97186.36
2018-04-25T07:32:12.964Z,97181.87
2018-04-25T07:33:17.561Z,97189.84
2018-04-25T07:34:22.515Z,97184.10
2018-04-25T07:35:28.652Z,97186.19
2018-04-25T07:36:33.435Z,97186.92
2018-04-25T07:37:38.040Z,97185.68
2018-04-25T07:38:44.009Z,97185.68
2018-04-25T07:39:51.208Z,97194.61
2018-04-25T07:40:57.674Z,97193.42
2018-04-25T07:42:02.691Z,97195.55
2018-04-25T07:43:07.307Z,97201.63
2018-04-25T07:44:12.315Z,97188.06
2018-04-25T07:45:17.330Z,97196.25
2018-04-25T07:46:22.137Z,97183.64
2018-04-25T07:47:27.225Z,97195.27
2018-04-25T07:48:32.214Z,97189.50
2018-04-25T07:49:37.474Z,97206.28
2018-04-25T07:50:43.341Z,97201.05
2018-04-25T07:51:48.267Z,97200.78
2018-04-25T07:52:53.767Z,97189.63
2018-04-25T07:53:59.344Z,97226.75
2018-04-25T07:55:05.401Z,97206.27
2018-04-25T07:56:10.781Z,97221.33
2018-04-25T07:57:18.270Z,97212.80
2018-04-25T07:58:22.982Z,97210.11
2018-04-25T07:59:28.751Z,97209.77
2018-04-25T08:00:34.340Z,97213.26
2018-04-25T08:01:39.090Z,97221.16
2018-04-25T08:02:43.733Z,97219.38
2018-04-25T08:03:48.585Z,97216.14
2018-04-25T08:04:53.188Z,97206.78
2018-04-25T08:06:00.016Z,97223.64
2018-04-25T08:07:05.528Z,97198.80
2018-04-25T08:08:10.240Z,97203.08
2018-04-25T08:09:14.844Z,97211.95
2018-04-25T08:10:21.367Z,97219.34
2018-04-25T08:11:28.415Z,97221.30
2018-04-25T08:12:39.087Z,97229.54
2018-04-25T08:15:52.047Z,97231.52
2018-04-25T08:17:03.641Z,97210.05
2018-04-25T08:18:15.238Z,97223.80
2018-04-25T08:21:28.959Z,97231.91
2018-04-25T08:22:33.644Z,97226.80
2018-04-25T08:23:38.315Z,97240.33
2018-04-25T08:24:43.936Z,97236.72
2018-04-25T08:25:48.750Z,97212.89
2018-04-25T08:26:53.350Z,97215.07
2018-04-25T08:27:58.215Z,97249.88
2018-04-25T08:29:02.912Z,97231.66
2018-04-25T08:30:07.526Z,97247.44
2018-04-25T08:31:12.293Z,97252.01
2018-04-25T08:32:16.711Z,97259.86
2018-04-25T08:33:21.143Z,97258.59
2018-04-25T08:34:25.613Z,97263.38
2018-04-25T08:35:30.161Z,97257.17
2018-04-25T08:36:34.675Z,97252.53
2018-04-25T08:37:39.705Z,97224.69
2018-04-25T08:38:44.315Z,97240.67
2018-04-25T08:39:48.939Z,97249.95
2018-04-25T08:40:53.543Z,97209.31
2018-04-25T08:41:58.131Z,97274.09
2018-04-25T08:43:02.708Z,97253.91
2018-04-25T08:44:07.570Z,97244.52
2018-04-25T08:45:12.183Z,97254.93
2018-04-25T08:46:16.858Z,97255.34
2018-04-25T08:47:21.626Z,97260.05
2018-04-25T08:48:26.258Z,97245.02
2018-04-25T08:49:31.027Z,97243.17
2018-04-25T08:50:36.046Z,97242.13
2018-04-25T08:51:40.760Z,97254.42
2018-04-25T08:52:46.020Z,97256.52
2018-04-25T08:53:50.679Z,97254.02
2018-04-25T08:54:55.321Z,97224.81
2018-04-25T08:55:59.848Z,97247.20
2018-04-25T08:57:04.875Z,97224.81
2018-04-25T08:58:09.505Z,97253.72
2018-04-25T08:59:14.041Z,97229.86
2018-04-25T09:00:18.548Z,97284.53
2018-04-25T09:01:23.196Z,97241.75
2018-04-25T09:02:27.806Z,97231.95
2018-04-25T09:03:32.802Z,97262.23
2018-04-25T09:04:37.514Z,97271.52
2018-04-25T09:05:42.112Z,97277.06
2018-04-25T09:06:46.800Z,97285.84
2018-04-25T09:07:51.416Z,97287.44
2018-04-25T09:08:56.017Z,97267.84
2018-04-25T09:10:02.014Z,97287.85
2018-04-25T09:11:06.626Z,97282.63
2018-04-25T09:12:11.390Z,97286.13
2018-04-25T09:13:15.902Z,97279.78
2018-04-25T09:14:20.527Z,97268.47
2018-04-25T09:15:25.089Z,97285.88
2018-04-25T09:16:29.698Z,97299.38
2018-04-25T09:17:34.452Z,97286.00
2018-04-25T09:18:39.422Z,97299.42
2018-04-25T09:19:44.206Z,97290.67
2018-04-25T09:20:49.484Z,97291.17
2018-04-25T09:21:54.447Z,97298.30
2018-04-25T09:22:59.028Z,97294.52
2018-04-25T09:24:03.603Z,97293.37
2018-04-25T09:25:08.203Z,97303.56
2018-04-25T09:26:12.944Z,97316.92
2018-04-25T09:27:17.541Z,97314.03
2018-04-25T09:28:23.619Z,97317.70
2018-04-25T09:29:28.433Z,97315.00
2018-04-25T09:30:33.386Z,97326.32
2018-04-25T09:31:38.064Z,97311.45
2018-04-25T09:32:42.656Z,97287.10
2018-04-25T09:33:47.197Z,97306.31
2018-04-25T09:34:52.663Z,97307.45
2018-04-25T09:35:57.188Z,97312.97
2018-04-25T09:37:01.752Z,97312.48
2018-04-25T09:38:06.262Z,97311.76
2018-04-25T09:39:10.865Z,97309.74
2018-04-25T09:40:15.345Z,97314.60
2018-04-25T09:41:19.859Z,97309.63
2018-04-25T09:42:24.440Z,97315.98
2018-04-25T09:43:29.037Z,97313.86
2018-04-25T09:44:33.560Z,97314.55
2018-04-25T09:45:38.203Z,97320.17
2018-04-25T09:46:43.611Z,97304.00
2018-04-25T09:47:48.119Z,97317.36
2018-04-25T09:48:53.159Z,97315.28
2018-04-25T09:49:58.641Z,97287.20
2018-04-25T09:51:03.301Z,97308.78
2018-04-25T09:52:09.287Z,97313.73
2018-04-25T09:53:15.264Z,97315.46
2018-04-25T09:54:20.230Z,97317.64
2018-04-25T09:55:24.797Z,97291.38
2018-04-25T09:56:29.445Z,97299.86
2018-04-25T09:57:34.177Z,97266.61
2018-04-25T09:58:38.635Z,97325.04
2018-04-25T09:59:43.190Z,97302.61
2018-04-25T10:00:51.806Z,97311.55
2018-04-25T10:02:00.410Z,97299.80
2018-04-25T10:03:09.038Z,97286.47
2018-04-25T10:04:13.969Z,97302.63
2018-04-25T10:05:18.531Z,97296.70
2018-04-25T10:06:23.114Z,97287.80
2018-04-25T10:07:27.827Z,97308.38
2018-04-25T10:08:32.497Z,97298.59
2018-04-25T10:09:37.390Z,97302.03
2018-04-25T10:10:42.318Z,97308.75
2018-04-25T10:11:47.050Z,97312.82
2018-04-25T10:12:51.644Z,97303.23
2018-04-25T10:13:56.972Z,97308.23
2018-04-25T10:15:01.429Z,97316.17
2018-04-25T10:16:05.952Z,97314.23
2018-04-25T10:17:10.888Z,97306.62
2018-04-25T10:18:15.605Z,97315.11
2018-04-25T10:19:20.212Z,97314.49
2018-04-25T10:20:24.909Z,97290.24
2018-04-25T10:21:29.616Z,97298.36
2018-04-25T10:22:34.273Z,97204.59
2018-04-25T10:23:40.008Z,97268.55
2018-04-25T10:24:44.611Z,97302.03
2018-04-25T10:25:49.222Z,97302.22
2018-04-25T10:26:53.796Z,97298.80
2018-04-25T10:27:58.403Z,97265.92
2018-04-25T10:29:03.715Z,97287.47
2018-04-25T10:30:08.660Z,97295.96
2018-04-25T10:31:13.860Z,97281.09
2018-04-25T10:32:18.552Z,97247.95
2018-04-25T10:33:23.568Z,97295.69
2018-04-25T10:34:28.293Z,97291.16
2018-04-25T10:35:32.935Z,97174.05
2018-04-25T10:36:38.140Z,97287.80
2018-04-25T10:37:42.781Z,97312.63
2018-04-25T10:38:47.871Z,97305.20
2018-04-25T10:39:53.348Z,97278.74
2018-04-25T10:40:58.148Z,97306.06
2018-04-25T10:42:02.958Z,97316.20
2018-04-25T10:43:08.140Z,97310.47
2018-04-25T10:44:14.027Z,97312.05
2018-04-25T10:45:18.870Z,97326.66
2018-04-25T10:46:24.701Z,97325.86
2018-04-25T10:47:29.364Z,97324.88
2018-04-25T10:48:34.268Z,97322.72
2018-04-25T10:49:39.622Z,97320.52
2018-04-25T10:50:44.914Z,97284.09
2018-04-25T10:51:49.783Z,97317.55
2018-04-25T10:52:54.627Z,97292.22
2018-04-25T10:53:59.872Z,97311.19
2018-04-25T10:55:05.115Z,97322.28
2018-04-25T10:56:10.030Z,97244.59
2018-04-25T10:57:14.630Z,97285.77
2018-04-25T10:58:19.828Z,97311.55
2018-04-25T10:59:24.653Z,97318.52
2018-04-25T11:00:29.709Z,97311.16
2018-04-25T11:01:35.085Z,97326.89
2018-04-25T11:02:39.938Z,97306.47
2018-04-25T11:03:45.013Z,97280.08
2018-04-25T11:04:50.144Z,97304.86
2018-04-25T11:05:55.075Z,97311.55
2018-04-25T11:06:59.782Z,97319.05
2018-04-25T11:08:04.451Z,97312.88
2018-04-25T11:09:10.397Z,97321.38
2018-04-25T11:10:15.110Z,97318.45
2018-04-25T11:11:19.787Z,97290.23
2018-04-25T11:12:24.453Z,97293.20
2018-04-25T11:13:29.367Z,97312.84
2018-04-25T11:14:33.985Z,97314.64
2018-04-25T11:15:39.537Z,97310.05
2018-04-25T11:16:44.471Z,97297.67
2018-04-25T11:17:49.108Z,97307.55
2018-04-25T11:18:54.065Z,97282.17
2018-04-25T11:19:58.653Z,97268.56
2018-04-25T11:21:03.054Z,97285.81
2018-04-25T11:22:07.821Z,97274.27
2018-04-25T11:23:12.833Z,97293.05
2018-04-25T11:24:18.034Z,97284.15
2018-04-25T11:25:23.001Z,97298.50
2018-04-25T11:26:27.699Z,97290.91
2018-04-25T11:27:32.960Z,97289.82
2018-04-25T11:28:38.248Z,97289.83
2018-04-25T11:29:43.196Z,97290.21
2018-04-25T11:30:47.952Z,97303.17
2018-04-25T11:31:53.340Z,97284.17
2018-04-25T11:32:58.396Z,97274.14
2018-04-25T11:34:03.180Z,97294.50
2018-04-25T11:35:08.174Z,97282.22
2018-04-25T11:36:12.819Z,97317.98
2018-04-25T11:37:17.548Z,97319.39
2018-04-25T11:38:22.173Z,97309.98
2018-04-25T11:39:26.998Z,97306.06
2018-04-25T11:40:31.615Z,97288.36
2018-04-25T11:41:36.660Z,97285.36
2018-04-25T11:42:41.729Z,97297.16
2018-04-25T11:43:46.536Z,97291.41
2018-04-25T11:44:51.074Z,97305.75
2018-04-25T11:45:56.914Z,97317.30
2018-04-25T11:47:01.845Z,97291.86
2018-04-25T11:48:06.342Z,97322.24
2018-04-25T11:49:11.265Z,97338.19
2018-04-25T11:50:16.482Z,97346.54
2018-04-25T11:51:21.908Z,97351.15
2018-04-25T11:52:27.330Z,97354.59
2018-04-25T11:53:32.591Z,97357.48
2018-04-25T11:54:40.338Z,97362.28
2018-04-25T11:55:45.090Z,97363.39
2018-04-25T11:56:49.685Z,97353.39
2018-04-25T11:57:54.264Z,97350.34
2018-04-25T11:58:59.427Z,97354.36
2018-04-25T12:00:04.914Z,97353.55
2018-04-25T12:01:09.858Z,97357.31
2018-04-25T12:02:14.728Z,97367.13
2018-04-25T12:03:19.385Z,97365.53
2018-04-25T12:04:24.051Z,97361.91
2018-04-25T12:05:28.662Z,97363.52
2018-04-25T12:06:34.434Z,97370.50
2018-04-25T12:07:38.938Z,97377.68
2018-04-25T12:08:43.945Z,97370.48
2018-04-25T12:09:48.745Z,97370.48
2018-04-25T12:10:53.636Z,97379.19
2018-04-25T12:11:58.359Z,97380.69
2018-04-25T12:13:04.591Z,97375.62
2018-04-25T12:14:09.360Z,97377.00
2018-04-25T12:15:13.988Z,97364.92
2018-04-25T12:16:18.803Z,97358.39
2018-04-25T12:17:23.929Z,97366.38
2018-04-25T12:18:29.435Z,97359.86
2018-04-25T12:19:34.389Z,97369.35
2018-04-25T12:20:39.756Z,97366.84
2018-04-25T12:21:44.517Z,97363.56
2018-04-25T12:22:59.576Z,97360.95
2018-04-25T12:24:04.250Z,97370.55
2018-04-25T12:25:09.602Z,97366.91
2018-04-25T12:26:14.810Z,97361.19
2018-04-25T12:27:19.659Z,97344.11
2018-04-25T12:28:25.361Z,97368.02
2018-04-25T12:29:29.904Z,97345.77
2018-04-25T12:30:35.360Z,97337.62
2018-04-25T12:31:39.871Z,97349.17
2018-04-25T12:32:45.022Z,97359.68
2018-04-25T12:33:50.121Z,97354.55
2018-04-25T12:34:55.253Z,97362.64
2018-04-25T12:35:59.873Z,97353.11
2018-04-25T12:37:04.364Z,97356.93
2018-04-25T12:38:09.369Z,97348.25
2018-04-25T12:39:14.632Z,97344.78
2018-04-25T12:40:19.575Z,97328.31
2018-04-25T12:41:24.231Z,97349.02
2018-04-25T12:42:28.817Z,97343.70
2018-04-25T12:43:33.390Z,97359.13
2018-04-25T12:44:38.673Z,97375.20
2018-04-25T12:45:43.623Z,97374.69
2018-04-25T12:46:48.470Z,97359.72
2018-04-25T12:47:53.183Z,97352.53